Time;durP1;ratioP1;P1;durP2;ratioP2;P2;SDS_P1;SDS_P2;PMS_P1;PMS_P2;Temp;Humidity;BMP_temperature;BMP_pressure;BME280_temperature;BME280_humidity;BME280_pressure;Samples;Min_cycle;Max_cycle;Signal;HPM_P1;HPM_P2
2023/06/05 00:09:18;;;;;;;1999.90;999.90;;;17.40;76.10;;;;;;6721898;88;20356;-79
2023/06/05 00:19:19;;;;;;;1999.90;999.90;;;17.30;78.20;;;;;;6725031;88;20252;-79
2023/06/05 00:29:19;;;;;;;1999.90;999.90;;;17.20;79.00;;;;;;6721102;88;20355;-78
2023/06/05 00:39:20;;;;;;;1999.90;999.90;;;16.70;81.40;;;;;;6726626;88;20209;-79
2023/06/05 00:49:20;;;;;;;1999.90;999.90;;;16.60;81.90;;;;;;6723145;88;20199;-78
2023/06/05 00:59:22;;;;;;;1999.90;999.90;;;16.50;82.40;;;;;;6726686;88;20743;-78
2023/06/05 01:09:24;;;;;;;1999.90;999.90;;;16.30;83.30;;;;;;6719601;88;20284;-79
2023/06/05 01:19:24;;;;;;;1999.90;999.90;;;16.00;84.30;;;;;;6722261;88;20252;-79
2023/06/05 01:29:49;;;;;;;1999.90;999.90;;;15.90;84.60;;;;;;6730347;88;20737;-80
2023/06/05 01:39:51;;;;;;;1999.90;999.90;;;15.80;86.30;;;;;;6722739;88;20783;-79
2023/06/05 01:49:52;;;;;;;1999.90;999.90;;;15.50;88.00;;;;;;6728705;88;20194;-79
2023/06/05 01:59:53;;;;;;;1999.90;999.90;;;15.40;91.40;;;;;;6724131;88;20186;-80
2023/06/05 02:10:14;;;;;;;1999.90;999.90;;;15.20;93.70;;;;;;6702027;77;20159;-82
2023/06/05 02:20:17;;;;;;;1999.90;999.90;;;15.00;94.50;;;;;;6715158;88;20813;-80
2023/06/05 02:30:18;;;;;;;1999.90;999.90;;;15.00;96.80;;;;;;6714722;88;20874;-80
2023/06/05 02:40:21;;;;;;;1999.90;999.90;;;14.80;97.40;;;;;;6714281;88;20170;-80
2023/06/05 02:50:22;;;;;;;1999.90;999.90;;;14.60;99.80;;;;;;6727617;87;20166;-82
2023/06/05 03:00:26;;;;;;;1999.90;999.90;;;14.40;99.90;;;;;;6713738;88;20258;-82
2023/06/05 03:10:27;;;;;;;1999.90;999.90;;;14.30;99.90;;;;;;6729660;87;20194;-82
2023/06/05 03:20:29;;;;;;;1999.90;999.90;;;14.00;99.90;;;;;;6801943;87;20796;-81
2023/06/05 03:30:29;;;;;;;1999.90;999.90;;;13.80;99.90;;;;;;6798070;87;20164;-81
2023/06/05 03:40:30;;;;;;;1999.90;999.90;;;13.70;99.90;;;;;;6802572;87;20155;-82
2023/06/05 03:50:33;;;;;;;1999.90;999.90;;;13.50;99.90;;;;;;6802271;87;20158;-82
2023/06/05 04:00:35;;;;;;;1999.90;999.90;;;13.50;99.90;;;;;;6802091;87;20256;-81
2023/06/05 04:10:36;;;;;;;1999.90;999.90;;;13.40;99.90;;;;;;6784292;87;20892;-81
2023/06/05 04:20:36;;;;;;;1999.90;999.90;;;13.30;99.90;;;;;;6784088;87;20159;-80
2023/06/05 04:31:06;;;;;;;1999.90;999.90;;;13.30;99.90;;;;;;6784034;87;20231;-81
2023/06/05 04:41:07;;;;;;;1999.90;999.90;;;13.50;99.90;;;;;;6783113;87;21030;-82
2023/06/05 04:51:32;;;;;;;;;;;;;;;;;;;;;
2023/06/05 05:12:36;;;;;;;1999.90;999.90;;;13.60;99.90;;;;;;6748908;88;20183;-87
2023/06/05 05:22:38;;;;;;;1999.90;999.90;;;13.80;99.90;;;;;;6749035;88;20169;-85
2023/06/05 05:32:38;;;;;;;1999.90;999.90;;;14.00;99.90;;;;;;6742486;88;20199;-81
2023/06/05 05:42:39;;;;;;;1999.90;999.90;;;14.00;99.90;;;;;;6728523;88;20213;-79
2023/06/05 05:52:39;;;;;;;1999.90;999.90;;;14.20;99.90;;;;;;6730679;88;20189;-81
2023/06/05 06:02:40;;;;;;;1999.90;999.90;;;14.50;99.90;;;;;;6734988;88;20999;-81
2023/06/05 06:12:41;;;;;;;1999.90;999.90;;;15.40;99.90;;;;;;6720400;88;20200;-81
2023/06/05 06:22:42;;;;;;;1999.90;999.90;;;16.30;99.90;;;;;;6722934;88;20186;-80
2023/06/05 06:32:43;;;;;;;1999.90;999.90;;;17.10;99.60;;;;;;6719401;88;20713;-80
2023/06/05 06:42:43;;;;;;;1999.90;999.90;;;17.70;97.50;;;;;;6720750;88;20255;-80
2023/06/05 06:52:44;;;;;;;1999.90;999.90;;;18.40;96.20;;;;;;6726864;88;20213;-81
2023/06/05 07:02:44;;;;;;;1999.90;999.90;;;18.70;94.60;;;;;;6716916;88;20216;-81
2023/06/05 07:12:45;;;;;;;1999.90;999.90;;;19.60;94.60;;;;;;6724285;88;20184;-79
2023/06/05 07:22:45;;;;;;;1999.90;999.90;;;20.20;93.30;;;;;;6723991;88;20193;-80
2023/06/05 07:32:46;;;;;;;1999.90;999.90;;;20.70;92.60;;;;;;6726977;88;20289;-82
2023/06/05 07:42:47;;;;;;;1999.90;999.90;;;21.50;91.00;;;;;;6721403;88;20178;-81
2023/06/05 07:52:47;;;;;;;1999.90;999.90;;;22.20;90.10;;;;;;6724282;88;20305;-80
2023/06/05 08:02:48;;;;;;;1999.90;999.90;;;22.30;88.20;;;;;;6725906;88;20859;-78
2023/06/05 08:23:51;;;;;;;1999.90;999.90;;;23.50;82.40;;;;;;6657026;88;20670;-79
2023/06/05 08:33:54;;;;;;;1999.90;999.90;;;24.30;78.70;;;;;;6658860;88;20184;-80
2023/06/05 08:43:55;;;;;;;1999.90;999.90;;;24.60;80.10;;;;;;6651118;88;20266;-78
2023/06/05 08:54:12;;;;;;;1999.90;999.90;;;25.40;78.30;;;;;;6670452;88;20361;-80
2023/06/05 09:04:13;;;;;;;1999.90;999.90;;;25.90;77.70;;;;;;6649161;88;20220;-78
2023/06/05 09:14:13;;;;;;;1999.90;999.90;;;26.70;76.50;;;;;;6663031;88;20363;-78
2023/06/05 09:24:19;;;;;;;1999.90;999.90;;;27.10;74.70;;;;;;6659634;88;20248;-78
2023/06/05 09:34:25;;;;;;;1999.90;999.90;;;27.30;74.10;;;;;;6672568;88;20184;-77
2023/06/05 09:44:29;;;;;;;1999.90;999.90;;;28.50;71.00;;;;;;6668951;88;20224;-79
2023/06/05 09:54:35;;;;;;;1999.90;999.90;;;28.40;71.00;;;;;;6657895;88;20184;-78
2023/06/05 10:04:49;;;;;;;1999.90;999.90;;;28.50;69.50;;;;;;6679584;88;20225;-79
2023/06/05 10:15:01;;;;;;;1999.90;999.90;;;29.10;69.70;;;;;;6665914;88;20202;-80
2023/06/05 10:25:06;;;;;;;1999.90;999.90;;;29.80;68.50;;;;;;6695319;88;20204;-78
2023/06/05 10:35:38;;;;;;;1999.90;999.90;;;30.90;67.80;;;;;;6662197;89;20244;-79
2023/06/05 10:45:39;;;;;;;1999.90;999.90;;;31.00;65.20;;;;;;6641291;89;20189;-77
2023/06/05 10:55:43;;;;;;;1999.90;999.90;;;31.60;64.60;;;;;;6675123;89;20198;-77
2023/06/05 11:06:12;;;;;;;1999.90;999.90;;;32.40;63.80;;;;;;6675546;89;20182;-79
2023/06/05 11:16:26;;;;;;;1999.90;999.90;;;32.50;63.20;;;;;;6642253;88;20188;-78
2023/06/05 11:26:46;;;;;;;1999.90;999.90;;;31.90;60.80;;;;;;6641686;88;21107;-78
2023/06/05 11:36:50;;;;;;;1999.90;999.90;;;32.70;59.90;;;;;;6639926;89;20251;-79
2023/06/05 11:46:50;;;;;;;1999.90;999.90;;;33.20;57.10;;;;;;6642091;89;20207;-77
2023/06/05 11:57:07;;;;;;;1999.90;999.90;;;31.50;57.20;;;;;;6640401;89;20209;-80
2023/06/05 12:07:08;;;;;;;1999.90;999.90;;;32.30;56.80;;;;;;6641253;89;20192;-78
2023/06/05 12:17:10;;;;;;;1999.90;999.90;;;33.20;56.30;;;;;;6639053;88;20212;-79
2023/06/05 12:27:11;;;;;;;1999.90;999.90;;;32.60;57.00;;;;;;6637911;89;20219;-79
2023/06/05 12:37:29;;;;;;;1999.90;999.90;;;34.00;55.20;;;;;;6640004;89;20640;-79
2023/06/05 12:47:30;;;;;;;1999.90;999.90;;;33.40;56.40;;;;;;6657818;89;20789;-77
2023/06/05 12:57:32;;;;;;;1999.90;999.90;;;33.60;56.50;;;;;;6673349;89;20244;-78
2023/06/05 13:07:32;;;;;;;1999.90;999.90;;;33.40;54.80;;;;;;6674424;88;20202;-78
2023/06/05 13:17:35;;;;;;;1999.90;999.90;;;33.90;54.40;;;;;;6681638;88;20268;-77
2023/06/05 13:27:36;;;;;;;1999.90;999.90;;;33.80;54.00;;;;;;6657464;89;20627;-78
2023/06/05 13:37:38;;;;;;;1999.90;999.90;;;33.00;55.30;;;;;;6656812;89;20235;-78
2023/06/05 13:47:38;;;;;;;1999.90;999.90;;;33.40;54.00;;;;;;6656913;89;20665;-78
2023/06/05 13:57:39;;;;;;;1999.90;999.90;;;33.60;53.20;;;;;;6655916;89;20173;-77
2023/06/05 14:07:39;;;;;;;1999.90;999.90;;;33.00;53.20;;;;;;6669900;89;20197;-80
2023/06/05 14:17:40;;;;;;;1999.90;999.90;;;33.20;53.30;;;;;;6647783;88;20208;-79
2023/06/05 14:27:40;;;;;;;1999.90;999.90;;;32.60;53.60;;;;;;6645384;88;20709;-78
2023/06/05 14:37:42;;;;;;;1999.90;999.90;;;33.40;53.70;;;;;;6642437;88;20259;-78
2023/06/05 14:47:44;;;;;;;1999.90;999.90;;;33.00;52.00;;;;;;6655638;88;20214;-77
2023/06/05 14:57:44;;;;;;;1999.90;999.90;;;33.20;52.20;;;;;;6733218;88;20180;-78
2023/06/05 15:07:45;;;;;;;1999.90;999.90;;;33.20;51.50;;;;;;6693964;88;20203;-78
2023/06/05 15:17:45;;;;;;;1999.90;999.90;;;33.20;52.20;;;;;;6647581;88;20196;-77
2023/06/05 15:27:48;;;;;;;1999.90;999.90;;;32.60;52.50;;;;;;6664871;88;20207;-77
2023/06/05 15:37:48;;;;;;;1999.90;999.90;;;32.90;49.20;;;;;;6643365;89;20202;-77
2023/06/05 15:47:49;;;;;;;1999.90;999.90;;;31.90;49.70;;;;;;6644045;88;20211;-79
2023/06/05 15:57:50;;;;;;;;;;;32.60;49.60;;;;;;6659629;88;20188;-79
2023/06/05 16:07:50;;;;;;;1999.90;999.90;;;32.70;49.20;;;;;;6651141;88;20086;-79
2023/06/05 16:17:51;;;;;;;1999.90;999.90;;;32.70;49.50;;;;;;6650096;88;20217;-78
2023/06/05 16:27:51;;;;;;;1999.90;999.90;;;32.20;52.30;;;;;;6658839;89;20700;-79
2023/06/05 16:37:52;;;;;;;1999.90;999.90;;;30.60;53.40;;;;;;6658197;88;20200;-76
2023/06/05 16:47:52;;;;;;;1999.90;999.90;;;30.20;54.10;;;;;;6664233;88;20188;-77
2023/06/05 16:57:53;;;;;;;1999.90;999.90;;;29.90;55.30;;;;;;6653255;88;20578;-78
2023/06/05 17:07:53;;;;;;;1999.90;999.90;;;29.90;56.30;;;;;;6643044;88;20342;-77
2023/06/05 17:17:54;;;;;;;1999.90;999.90;;;29.70;56.20;;;;;;6644225;88;20323;-75
2023/06/05 17:27:55;;;;;;;1999.90;999.90;;;29.70;57.80;;;;;;6649240;88;20217;-77
2023/06/05 17:37:55;;;;;;;1999.90;999.90;;;29.00;58.90;;;;;;6669506;88;20207;-77
2023/06/05 17:47:56;;;;;;;1999.90;999.90;;;28.40;59.30;;;;;;6652216;88;20285;-73
2023/06/05 17:57:56;;;;;;;1999.90;999.90;;;27.80;59.90;;;;;;6663560;88;20332;-75
2023/06/05 18:07:57;;;;;;;1999.90;999.90;;;27.60;59.80;;;;;;6648323;88;20284;-76
2023/06/05 18:17:58;;;;;;;1999.90;999.90;;;27.20;60.00;;;;;;6673341;88;20388;-77
2023/06/05 18:27:58;;;;;;;1999.90;999.90;;;26.80;60.20;;;;;;6664226;88;20168;-75
2023/06/05 18:37:59;;;;;;;1999.90;999.90;;;26.40;61.00;;;;;;6654713;88;20210;-77
2023/06/05 18:48:00;;;;;;;1999.90;999.90;;;26.00;61.30;;;;;;6665068;88;20246;-75
2023/06/05 18:58:00;;;;;;;1999.90;999.90;;;25.70;62.40;;;;;;6648254;88;20222;-73
2023/06/05 19:08:01;;;;;;;1999.90;999.90;;;25.30;63.10;;;;;;6648498;88;20282;-74
2023/06/05 19:18:01;;;;;;;1999.90;999.90;;;24.90;63.90;;;;;;6665355;88;20228;-74
2023/06/05 19:28:02;;;;;;;1999.90;999.90;;;24.60;64.70;;;;;;6663385;88;20666;-76
2023/06/05 19:38:04;;;;;;;1999.90;999.90;;;24.30;65.60;;;;;;6653675;88;20207;-77
2023/06/05 19:48:05;;;;;;;1999.90;999.90;;;23.90;65.90;;;;;;6665945;88;20344;-75
2023/06/05 19:58:05;;;;;;;1999.90;999.90;;;23.60;67.20;;;;;;6663030;88;20200;-75
2023/06/05 20:08:06;;;;;;;1999.90;999.90;;;23.30;68.00;;;;;;6646507;88;20748;-78
2023/06/05 20:18:06;;;;;;;1999.90;999.90;;;22.90;68.80;;;;;;6659471;88;20341;-77
2023/06/05 20:28:08;;;;;;;1999.90;999.90;;;22.60;69.20;;;;;;6653998;88;20201;-78
2023/06/05 20:38:09;;;;;;;1999.90;999.90;;;22.30;70.00;;;;;;6656839;88;20206;-78
2023/06/05 20:48:10;;;;;;;1999.90;999.90;;;21.90;70.90;;;;;;6652405;88;20187;-78
2023/06/05 20:58:11;;;;;;;1999.90;999.90;;;21.60;71.20;;;;;;6662303;88;20250;-78
2023/06/05 21:08:12;;;;;;;1999.90;999.90;;;21.30;72.00;;;;;;6653035;89;20275;-77
2023/06/05 21:18:12;;;;;;;1999.90;999.90;;;21.00;73.60;;;;;;6653695;88;20271;-78
2023/06/05 21:28:13;;;;;;;1999.90;999.90;;;20.90;74.20;;;;;;6658406;88;20215;-76
2023/06/05 21:38:13;;;;;;;1999.90;999.90;;;20.60;74.40;;;;;;6651326;89;20200;-78
2023/06/05 21:48:14;;;;;;;1999.90;999.90;;;20.40;74.80;;;;;;6665850;88;20210;-78
2023/06/05 21:58:14;;;;;;;1999.90;999.90;;;20.20;75.40;;;;;;6672659;88;20315;-78
2023/06/05 22:08:15;;;;;;;1999.90;999.90;;;20.00;76.70;;;;;;6657076;89;20177;-78
2023/06/05 22:18:25;;;;;;;1999.90;999.90;;;19.90;77.20;;;;;;6669898;88;21079;-78
2023/06/05 22:28:26;;;;;;;1999.90;999.90;;;19.70;78.20;;;;;;6665081;88;20667;-77
2023/06/05 22:38:27;;;;;;;1999.90;999.90;;;19.40;79.20;;;;;;6659568;88;20222;-79
2023/06/05 22:48:31;;;;;;;1999.90;999.90;;;19.40;79.80;;;;;;6655163;88;20204;-79
2023/06/05 22:58:32;;;;;;;1999.90;999.90;;;19.10;80.80;;;;;;6663648;88;20164;-79
2023/06/05 23:08:33;;;;;;;1999.90;999.90;;;18.90;81.70;;;;;;6683182;88;20201;-79
2023/06/05 23:18:34;;;;;;;1999.90;999.90;;;18.70;82.20;;;;;;6668738;88;20222;-78
2023/06/05 23:28:34;;;;;;;1999.90;999.90;;;18.50;83.00;;;;;;6665224;88;20334;-77
2023/06/05 23:38:35;;;;;;;1999.90;999.90;;;18.40;83.60;;;;;;6659275;88;20199;-77
2023/06/05 23:48:35;;;;;;;1999.90;999.90;;;18.30;84.90;;;;;;6651252;88;20188;-76
2023/06/05 23:58:36;;;;;;;1999.90;999.90;;;18.20;85.20;;;;;;6647474;88;20809;-76
